sensor_id;sensor_type;location;lat;lon;timestamp;P1;durP1;ratioP1;P2;durP2;ratioP2
35632;SDS011;21754;48.216;-1.628;2024-02-26T00:01:44;17.02;;;3.38;;
35632;SDS011;21754;48.216;-1.628;2024-02-26T00:04:10;13.82;;;3.00;;
35632;SDS011;21754;48.216;-1.628;2024-02-26T00:06:37;6.87;;;2.80;;
35632;SDS011;21754;48.216;-1.628;2024-02-26T00:09:06;7.45;;;3.30;;
35632;SDS011;21754;48.216;-1.628;2024-02-26T00:11:32;13.75;;;4.20;;
35632;SDS011;21754;48.216;-1.628;2024-02-26T00:13:58;8.68;;;2.53;;
35632;SDS011;21754;48.216;-1.628;2024-02-26T00:16:24;4.05;;;2.10;;
35632;SDS011;21754;48.216;-1.628;2024-02-26T00:18:50;8.38;;;2.88;;
35632;SDS011;21754;48.216;-1.628;2024-02-26T00:21:16;6.07;;;2.10;;
35632;SDS011;21754;48.216;-1.628;2024-02-26T00:23:43;6.32;;;2.80;;
35632;SDS011;21754;48.216;-1.628;2024-02-26T00:26:09;5.07;;;2.58;;
35632;SDS011;21754;48.216;-1.628;2024-02-26T00:28:36;10.05;;;2.15;;
35632;SDS011;21754;48.216;-1.628;2024-02-26T00:31:02;12.80;;;4.40;;
35632;SDS011;21754;48.216;-1.628;2024-02-26T00:33:28;8.43;;;2.88;;
35632;SDS011;21754;48.216;-1.628;2024-02-26T00:35:54;8.20;;;2.80;;
35632;SDS011;21754;48.216;-1.628;2024-02-26T00:38:20;10.45;;;2.70;;
35632;SDS011;21754;48.216;-1.628;2024-02-26T00:40:46;7.57;;;2.88;;
35632;SDS011;21754;48.216;-1.628;2024-02-26T00:43:12;5.75;;;2.50;;
35632;SDS011;21754;48.216;-1.628;2024-02-26T00:45:38;9.25;;;2.83;;
35632;SDS011;21754;48.216;-1.628;2024-02-26T00:48:04;6.90;;;2.50;;
35632;SDS011;21754;48.216;-1.628;2024-02-26T00:50:31;2.47;;;2.10;;
35632;SDS011;21754;48.216;-1.628;2024-02-26T00:52:57;7.57;;;2.40;;
35632;SDS011;21754;48.216;-1.628;2024-02-26T00:55:23;4.28;;;2.72;;
35632;SDS011;21754;48.216;-1.628;2024-02-26T00:57:49;7.15;;;2.03;;
35632;SDS011;21754;48.216;-1.628;2024-02-26T01:00:15;3.13;;;1.98;;
35632;SDS011;21754;48.216;-1.628;2024-02-26T01:02:41;4.80;;;1.83;;
35632;SDS011;21754;48.216;-1.628;2024-02-26T01:05:08;7.15;;;1.88;;
35632;SDS011;21754;48.216;-1.628;2024-02-26T01:07:34;3.03;;;1.60;;
35632;SDS011;21754;48.216;-1.628;2024-02-26T01:10:04;6.93;;;1.77;;
35632;SDS011;21754;48.216;-1.628;2024-02-26T01:12:30;15.02;;;2.20;;
35632;SDS011;21754;48.216;-1.628;2024-02-26T01:14:56;2.90;;;1.88;;
35632;SDS011;21754;48.216;-1.628;2024-02-26T01:17:23;2.55;;;1.67;;
35632;SDS011;21754;48.216;-1.628;2024-02-26T01:19:49;3.50;;;2.20;;
35632;SDS011;21754;48.216;-1.628;2024-02-26T01:22:15;5.32;;;2.00;;
35632;SDS011;21754;48.216;-1.628;2024-02-26T01:24:41;3.25;;;2.20;;
35632;SDS011;21754;48.216;-1.628;2024-02-26T01:27:07;12.85;;;1.90;;
35632;SDS011;21754;48.216;-1.628;2024-02-26T01:29:34;5.77;;;1.90;;
35632;SDS011;21754;48.216;-1.628;2024-02-26T01:32:00;1.63;;;1.52;;
35632;SDS011;21754;48.216;-1.628;2024-02-26T01:34:26;7.47;;;2.47;;
35632;SDS011;21754;48.216;-1.628;2024-02-26T01:36:52;6.15;;;3.38;;
35632;SDS011;21754;48.216;-1.628;2024-02-26T01:39:18;9.60;;;2.53;;
35632;SDS011;21754;48.216;-1.628;2024-02-26T01:41:44;11.23;;;2.85;;
35632;SDS011;21754;48.216;-1.628;2024-02-26T01:44:11;3.97;;;3.13;;
35632;SDS011;21754;48.216;-1.628;2024-02-26T01:46:41;6.43;;;2.40;;
35632;SDS011;21754;48.216;-1.628;2024-02-26T01:49:07;5.25;;;1.83;;
35632;SDS011;21754;48.216;-1.628;2024-02-26T01:51:34;9.07;;;2.00;;
35632;SDS011;21754;48.216;-1.628;2024-02-26T01:54:01;6.60;;;2.22;;
35632;SDS011;21754;48.216;-1.628;2024-02-26T01:56:28;2.00;;;1.75;;
35632;SDS011;21754;48.216;-1.628;2024-02-26T01:58:58;10.68;;;2.90;;
35632;SDS011;21754;48.216;-1.628;2024-02-26T02:01:27;6.32;;;3.00;;
35632;SDS011;21754;48.216;-1.628;2024-02-26T02:03:56;7.63;;;2.35;;
35632;SDS011;21754;48.216;-1.628;2024-02-26T02:06:23;5.28;;;1.65;;
35632;SDS011;21754;48.216;-1.628;2024-02-26T02:08:49;12.30;;;2.80;;
35632;SDS011;21754;48.216;-1.628;2024-02-26T02:11:16;10.15;;;2.00;;
35632;SDS011;21754;48.216;-1.628;2024-02-26T02:13:42;9.20;;;2.07;;
35632;SDS011;21754;48.216;-1.628;2024-02-26T02:16:08;6.38;;;1.75;;
35632;SDS011;21754;48.216;-1.628;2024-02-26T02:18:34;16.88;;;1.90;;
35632;SDS011;21754;48.216;-1.628;2024-02-26T02:21:01;6.43;;;2.63;;
35632;SDS011;21754;48.216;-1.628;2024-02-26T02:23:27;8.43;;;1.73;;
35632;SDS011;21754;48.216;-1.628;2024-02-26T02:25:53;9.82;;;2.40;;
35632;SDS011;21754;48.216;-1.628;2024-02-26T02:28:20;3.23;;;2.20;;
35632;SDS011;21754;48.216;-1.628;2024-02-26T02:30:46;10.95;;;2.50;;
35632;SDS011;21754;48.216;-1.628;2024-02-26T02:33:12;2.95;;;1.92;;
35632;SDS011;21754;48.216;-1.628;2024-02-26T02:35:40;4.38;;;1.58;;
35632;SDS011;21754;48.216;-1.628;2024-02-26T02:38:06;9.77;;;2.03;;
35632;SDS011;21754;48.216;-1.628;2024-02-26T02:40:32;5.32;;;2.00;;
35632;SDS011;21754;48.216;-1.628;2024-02-26T02:42:58;5.53;;;2.50;;
35632;SDS011;21754;48.216;-1.628;2024-02-26T02:45:25;27.50;;;3.75;;
35632;SDS011;21754;48.216;-1.628;2024-02-26T02:47:51;3.75;;;2.15;;
35632;SDS011;21754;48.216;-1.628;2024-02-26T02:50:17;7.07;;;2.08;;
35632;SDS011;21754;48.216;-1.628;2024-02-26T02:52:43;3.60;;;2.53;;
35632;SDS011;21754;48.216;-1.628;2024-02-26T02:55:09;7.50;;;2.80;;
35632;SDS011;21754;48.216;-1.628;2024-02-26T02:57:35;2.30;;;2.08;;
35632;SDS011;21754;48.216;-1.628;2024-02-26T03:00:06;6.47;;;2.63;;
35632;SDS011;21754;48.216;-1.628;2024-02-26T03:02:33;4.25;;;2.38;;
35632;SDS011;21754;48.216;-1.628;2024-02-26T03:05:01;5.80;;;3.00;;
35632;SDS011;21754;48.216;-1.628;2024-02-26T03:07:27;5.90;;;2.05;;
35632;SDS011;21754;48.216;-1.628;2024-02-26T03:09:53;4.68;;;2.22;;
35632;SDS011;21754;48.216;-1.628;2024-02-26T03:12:19;3.08;;;2.78;;
35632;SDS011;21754;48.216;-1.628;2024-02-26T03:14:45;4.15;;;2.38;;
35632;SDS011;21754;48.216;-1.628;2024-02-26T03:17:11;2.58;;;2.30;;
35632;SDS011;21754;48.216;-1.628;2024-02-26T03:19:37;7.38;;;2.40;;
35632;SDS011;21754;48.216;-1.628;2024-02-26T03:22:03;12.15;;;2.55;;
35632;SDS011;21754;48.216;-1.628;2024-02-26T03:24:30;6.80;;;2.35;;
35632;SDS011;21754;48.216;-1.628;2024-02-26T03:26:56;7.63;;;2.55;;
35632;SDS011;21754;48.216;-1.628;2024-02-26T03:29:22;9.23;;;2.88;;
35632;SDS011;21754;48.216;-1.628;2024-02-26T03:31:48;5.25;;;2.40;;
35632;SDS011;21754;48.216;-1.628;2024-02-26T03:34:14;13.15;;;2.83;;
35632;SDS011;21754;48.216;-1.628;2024-02-26T03:36:40;5.18;;;2.75;;
35632;SDS011;21754;48.216;-1.628;2024-02-26T03:39:07;4.82;;;2.72;;
35632;SDS011;21754;48.216;-1.628;2024-02-26T03:41:33;9.65;;;2.90;;
35632;SDS011;21754;48.216;-1.628;2024-02-26T03:44:00;2.83;;;2.30;;
35632;SDS011;21754;48.216;-1.628;2024-02-26T03:46:27;3.03;;;2.42;;
35632;SDS011;21754;48.216;-1.628;2024-02-26T03:48:53;2.22;;;2.13;;
35632;SDS011;21754;48.216;-1.628;2024-02-26T03:51:19;6.47;;;2.45;;
35632;SDS011;21754;48.216;-1.628;2024-02-26T03:53:45;5.13;;;2.20;;
35632;SDS011;21754;48.216;-1.628;2024-02-26T03:56:12;9.15;;;2.83;;
35632;SDS011;21754;48.216;-1.628;2024-02-26T03:58:41;4.15;;;1.70;;
35632;SDS011;21754;48.216;-1.628;2024-02-26T04:01:07;2.53;;;1.73;;
35632;SDS011;21754;48.216;-1.628;2024-02-26T04:03:33;2.67;;;2.30;;
35632;SDS011;21754;48.216;-1.628;2024-02-26T04:05:59;4.13;;;1.70;;
35632;SDS011;21754;48.216;-1.628;2024-02-26T04:08:25;1.65;;;1.55;;
35632;SDS011;21754;48.216;-1.628;2024-02-26T04:10:51;2.03;;;1.90;;
35632;SDS011;21754;48.216;-1.628;2024-02-26T04:13:17;3.85;;;1.30;;
35632;SDS011;21754;48.216;-1.628;2024-02-26T04:15:43;3.50;;;1.60;;
35632;SDS011;21754;48.216;-1.628;2024-02-26T04:18:10;4.75;;;1.70;;
35632;SDS011;21754;48.216;-1.628;2024-02-26T04:20:36;2.20;;;1.50;;
35632;SDS011;21754;48.216;-1.628;2024-02-26T04:23:02;1.63;;;1.52;;
35632;SDS011;21754;48.216;-1.628;2024-02-26T04:25:28;1.70;;;1.60;;
35632;SDS011;21754;48.216;-1.628;2024-02-26T04:27:54;1.02;;;1.00;;
35632;SDS011;21754;48.216;-1.628;2024-02-26T04:30:20;2.08;;;1.48;;
35632;SDS011;21754;48.216;-1.628;2024-02-26T04:32:47;2.65;;;2.35;;
35632;SDS011;21754;48.216;-1.628;2024-02-26T04:35:12;1.73;;;1.63;;
35632;SDS011;21754;48.216;-1.628;2024-02-26T04:37:38;2.05;;;1.63;;
35632;SDS011;21754;48.216;-1.628;2024-02-26T04:40:05;4.00;;;1.30;;
35632;SDS011;21754;48.216;-1.628;2024-02-26T04:42:31;2.72;;;1.30;;
35632;SDS011;21754;48.216;-1.628;2024-02-26T04:44:57;1.50;;;1.40;;
35632;SDS011;21754;48.216;-1.628;2024-02-26T04:47:23;1.67;;;1.10;;
35632;SDS011;21754;48.216;-1.628;2024-02-26T04:49:49;1.98;;;1.20;;
35632;SDS011;21754;48.216;-1.628;2024-02-26T04:52:15;1.13;;;1.10;;
35632;SDS011;21754;48.216;-1.628;2024-02-26T04:54:41;3.15;;;1.38;;
35632;SDS011;21754;48.216;-1.628;2024-02-26T04:57:07;1.05;;;0.93;;
35632;SDS011;21754;48.216;-1.628;2024-02-26T04:59:33;2.85;;;1.38;;
35632;SDS011;21754;48.216;-1.628;2024-02-26T05:02:00;1.70;;;1.60;;
35632;SDS011;21754;48.216;-1.628;2024-02-26T05:04:25;1.30;;;1.20;;
35632;SDS011;21754;48.216;-1.628;2024-02-26T05:06:51;1.20;;;1.10;;
35632;SDS011;21754;48.216;-1.628;2024-02-26T05:09:18;1.00;;;1.00;;
35632;SDS011;21754;48.216;-1.628;2024-02-26T05:11:45;0.82;;;0.70;;
35632;SDS011;21754;48.216;-1.628;2024-02-26T05:14:11;1.50;;;0.70;;
35632;SDS011;21754;48.216;-1.628;2024-02-26T05:16:37;1.85;;;0.68;;
35632;SDS011;21754;48.216;-1.628;2024-02-26T05:19:03;1.00;;;0.90;;
35632;SDS011;21754;48.216;-1.628;2024-02-26T05:21:30;0.90;;;0.90;;
35632;SDS011;21754;48.216;-1.628;2024-02-26T05:23:56;1.75;;;1.08;;
35632;SDS011;21754;48.216;-1.628;2024-02-26T05:26:23;0.90;;;0.90;;
35632;SDS011;21754;48.216;-1.628;2024-02-26T05:28:49;5.10;;;1.30;;
35632;SDS011;21754;48.216;-1.628;2024-02-26T05:31:15;1.42;;;1.33;;
35632;SDS011;21754;48.216;-1.628;2024-02-26T05:33:41;2.80;;;1.40;;
35632;SDS011;21754;48.216;-1.628;2024-02-26T05:36:07;2.25;;;1.63;;
35632;SDS011;21754;48.216;-1.628;2024-02-26T05:38:33;1.48;;;1.38;;
35632;SDS011;21754;48.216;-1.628;2024-02-26T05:40:59;0.93;;;0.93;;
35632;SDS011;21754;48.216;-1.628;2024-02-26T05:43:26;1.23;;;1.13;;
35632;SDS011;21754;48.216;-1.628;2024-02-26T05:45:52;1.45;;;1.35;;
35632;SDS011;21754;48.216;-1.628;2024-02-26T05:48:18;1.52;;;1.42;;
35632;SDS011;21754;48.216;-1.628;2024-02-26T05:50:47;1.17;;;1.08;;
35632;SDS011;21754;48.216;-1.628;2024-02-26T05:53:13;1.00;;;1.00;;
35632;SDS011;21754;48.216;-1.628;2024-02-26T05:55:39;1.35;;;1.25;;
35632;SDS011;21754;48.216;-1.628;2024-02-26T05:58:05;1.25;;;1.15;;
35632;SDS011;21754;48.216;-1.628;2024-02-26T06:00:31;1.20;;;1.10;;
35632;SDS011;21754;48.216;-1.628;2024-02-26T06:02:57;1.02;;;1.02;;
35632;SDS011;21754;48.216;-1.628;2024-02-26T06:05:23;2.92;;;0.88;;
35632;SDS011;21754;48.216;-1.628;2024-02-26T06:07:49;0.60;;;0.60;;
35632;SDS011;21754;48.216;-1.628;2024-02-26T06:10:15;0.57;;;0.57;;
35632;SDS011;21754;48.216;-1.628;2024-02-26T06:12:41;0.65;;;0.65;;
35632;SDS011;21754;48.216;-1.628;2024-02-26T06:15:07;0.70;;;0.70;;
35632;SDS011;21754;48.216;-1.628;2024-02-26T06:17:34;0.73;;;0.73;;
35632;SDS011;21754;48.216;-1.628;2024-02-26T06:20:00;0.63;;;0.63;;
35632;SDS011;21754;48.216;-1.628;2024-02-26T06:22:27;0.85;;;0.85;;
35632;SDS011;21754;48.216;-1.628;2024-02-26T06:24:53;0.77;;;0.77;;
35632;SDS011;21754;48.216;-1.628;2024-02-26T06:27:19;2.33;;;0.75;;
35632;SDS011;21754;48.216;-1.628;2024-02-26T06:29:46;0.88;;;0.65;;
35632;SDS011;21754;48.216;-1.628;2024-02-26T06:32:13;1.77;;;0.57;;
35632;SDS011;21754;48.216;-1.628;2024-02-26T06:34:39;0.55;;;0.55;;
35632;SDS011;21754;48.216;-1.628;2024-02-26T06:37:07;0.60;;;0.60;;
35632;SDS011;21754;48.216;-1.628;2024-02-26T06:39:33;0.93;;;0.77;;
35632;SDS011;21754;48.216;-1.628;2024-02-26T06:41:59;0.82;;;0.82;;
35632;SDS011;21754;48.216;-1.628;2024-02-26T06:44:27;2.08;;;0.70;;
35632;SDS011;21754;48.216;-1.628;2024-02-26T06:46:57;0.80;;;0.80;;
35632;SDS011;21754;48.216;-1.628;2024-02-26T06:49:24;3.80;;;0.57;;
35632;SDS011;21754;48.216;-1.628;2024-02-26T06:51:50;1.48;;;0.75;;
35632;SDS011;21754;48.216;-1.628;2024-02-26T06:54:16;1.75;;;1.15;;
35632;SDS011;21754;48.216;-1.628;2024-02-26T06:56:43;1.27;;;0.90;;
35632;SDS011;21754;48.216;-1.628;2024-02-26T06:59:09;6.03;;;1.63;;
35632;SDS011;21754;48.216;-1.628;2024-02-26T07:01:35;5.03;;;2.70;;
35632;SDS011;21754;48.216;-1.628;2024-02-26T07:04:01;1.75;;;1.27;;
35632;SDS011;21754;48.216;-1.628;2024-02-26T07:06:27;1.92;;;0.75;;
35632;SDS011;21754;48.216;-1.628;2024-02-26T07:08:53;1.85;;;1.13;;
35632;SDS011;21754;48.216;-1.628;2024-02-26T07:11:19;1.20;;;0.80;;
35632;SDS011;21754;48.216;-1.628;2024-02-26T07:13:46;0.65;;;0.65;;
35632;SDS011;21754;48.216;-1.628;2024-02-26T07:16:12;2.25;;;0.70;;
35632;SDS011;21754;48.216;-1.628;2024-02-26T07:18:41;0.80;;;0.80;;
35632;SDS011;21754;48.216;-1.628;2024-02-26T07:21:11;1.75;;;1.02;;
35632;SDS011;21754;48.216;-1.628;2024-02-26T07:23:37;0.85;;;0.82;;
35632;SDS011;21754;48.216;-1.628;2024-02-26T07:26:03;1.63;;;0.90;;
35632;SDS011;21754;48.216;-1.628;2024-02-26T07:28:29;2.58;;;1.00;;
35632;SDS011;21754;48.216;-1.628;2024-02-26T07:30:55;0.93;;;0.68;;
35632;SDS011;21754;48.216;-1.628;2024-02-26T07:33:21;5.13;;;0.60;;
35632;SDS011;21754;48.216;-1.628;2024-02-26T07:35:48;1.58;;;1.00;;
35632;SDS011;21754;48.216;-1.628;2024-02-26T07:38:14;0.75;;;0.75;;
35632;SDS011;21754;48.216;-1.628;2024-02-26T07:40:40;2.17;;;0.80;;
35632;SDS011;21754;48.216;-1.628;2024-02-26T07:43:06;4.88;;;1.90;;
35632;SDS011;21754;48.216;-1.628;2024-02-26T07:45:32;2.33;;;0.90;;
35632;SDS011;21754;48.216;-1.628;2024-02-26T07:47:58;10.15;;;1.52;;
35632;SDS011;21754;48.216;-1.628;2024-02-26T07:50:24;2.72;;;0.73;;
35632;SDS011;21754;48.216;-1.628;2024-02-26T07:52:50;2.78;;;0.82;;
35632;SDS011;21754;48.216;-1.628;2024-02-26T07:55:18;3.20;;;0.77;;
35632;SDS011;21754;48.216;-1.628;2024-02-26T07:57:44;4.22;;;1.25;;
35632;SDS011;21754;48.216;-1.628;2024-02-26T08:00:10;4.80;;;1.10;;
35632;SDS011;21754;48.216;-1.628;2024-02-26T08:02:36;6.57;;;0.90;;
35632;SDS011;21754;48.216;-1.628;2024-02-26T08:05:03;6.60;;;1.13;;
35632;SDS011;21754;48.216;-1.628;2024-02-26T08:07:29;1.75;;;1.23;;
35632;SDS011;21754;48.216;-1.628;2024-02-26T08:09:55;3.42;;;0.95;;
35632;SDS011;21754;48.216;-1.628;2024-02-26T08:12:22;3.45;;;1.33;;
35632;SDS011;21754;48.216;-1.628;2024-02-26T08:14:48;1.67;;;0.88;;
35632;SDS011;21754;48.216;-1.628;2024-02-26T08:17:14;9.07;;;1.45;;
35632;SDS011;21754;48.216;-1.628;2024-02-26T08:19:40;3.90;;;1.42;;
35632;SDS011;21754;48.216;-1.628;2024-02-26T08:22:06;3.85;;;0.93;;
35632;SDS011;21754;48.216;-1.628;2024-02-26T08:24:32;4.80;;;0.82;;
35632;SDS011;21754;48.216;-1.628;2024-02-26T08:26:58;1.83;;;1.13;;
35632;SDS011;21754;48.216;-1.628;2024-02-26T08:29:24;5.68;;;0.90;;
35632;SDS011;21754;48.216;-1.628;2024-02-26T08:31:50;1.95;;;1.42;;
35632;SDS011;21754;48.216;-1.628;2024-02-26T08:34:16;6.82;;;0.93;;
35632;SDS011;21754;48.216;-1.628;2024-02-26T08:36:42;2.42;;;0.85;;
35632;SDS011;21754;48.216;-1.628;2024-02-26T08:39:09;3.47;;;1.38;;
35632;SDS011;21754;48.216;-1.628;2024-02-26T08:41:35;4.03;;;0.60;;
35632;SDS011;21754;48.216;-1.628;2024-02-26T08:44:01;4.97;;;1.13;;
35632;SDS011;21754;48.216;-1.628;2024-02-26T08:46:28;2.47;;;0.90;;
35632;SDS011;21754;48.216;-1.628;2024-02-26T08:48:54;3.63;;;1.88;;
35632;SDS011;21754;48.216;-1.628;2024-02-26T08:51:20;0.80;;;0.80;;
35632;SDS011;21754;48.216;-1.628;2024-02-26T08:53:46;3.17;;;1.08;;
35632;SDS011;21754;48.216;-1.628;2024-02-26T08:56:13;5.35;;;1.92;;
35632;SDS011;21754;48.216;-1.628;2024-02-26T08:58:42;3.53;;;1.02;;
35632;SDS011;21754;48.216;-1.628;2024-02-26T09:01:08;7.57;;;0.88;;
35632;SDS011;21754;48.216;-1.628;2024-02-26T09:03:34;5.22;;;2.38;;
35632;SDS011;21754;48.216;-1.628;2024-02-26T09:06:00;7.07;;;1.17;;
35632;SDS011;21754;48.216;-1.628;2024-02-26T09:08:27;1.33;;;0.80;;
35632;SDS011;21754;48.216;-1.628;2024-02-26T09:10:53;2.65;;;0.77;;
35632;SDS011;21754;48.216;-1.628;2024-02-26T09:13:19;2.25;;;1.00;;
35632;SDS011;21754;48.216;-1.628;2024-02-26T09:15:45;0.68;;;0.68;;
35632;SDS011;21754;48.216;-1.628;2024-02-26T09:18:11;6.07;;;1.52;;
35632;SDS011;21754;48.216;-1.628;2024-02-26T09:20:37;4.15;;;1.17;;
35632;SDS011;21754;48.216;-1.628;2024-02-26T09:23:03;1.00;;;0.70;;
35632;SDS011;21754;48.216;-1.628;2024-02-26T09:25:29;5.30;;;0.75;;
35632;SDS011;21754;48.216;-1.628;2024-02-26T09:27:55;5.57;;;1.35;;
35632;SDS011;21754;48.216;-1.628;2024-02-26T09:30:21;1.10;;;0.80;;
35632;SDS011;21754;48.216;-1.628;2024-02-26T09:32:47;5.22;;;1.10;;
35632;SDS011;21754;48.216;-1.628;2024-02-26T09:35:13;6.20;;;0.90;;
35632;SDS011;21754;48.216;-1.628;2024-02-26T09:37:39;1.27;;;0.65;;
35632;SDS011;21754;48.216;-1.628;2024-02-26T09:40:05;5.65;;;0.95;;
35632;SDS011;21754;48.216;-1.628;2024-02-26T09:42:32;1.40;;;0.80;;
35632;SDS011;21754;48.216;-1.628;2024-02-26T09:44:59;5.30;;;0.73;;
35632;SDS011;21754;48.216;-1.628;2024-02-26T09:47:29;1.05;;;0.70;;
35632;SDS011;21754;48.216;-1.628;2024-02-26T09:49:57;4.60;;;1.00;;
35632;SDS011;21754;48.216;-1.628;2024-02-26T09:52:24;2.42;;;0.82;;
35632;SDS011;21754;48.216;-1.628;2024-02-26T09:54:51;1.95;;;1.10;;
35632;SDS011;21754;48.216;-1.628;2024-02-26T09:57:17;0.88;;;0.85;;
35632;SDS011;21754;48.216;-1.628;2024-02-26T09:59:44;3.10;;;1.23;;
35632;SDS011;21754;48.216;-1.628;2024-02-26T10:02:12;1.73;;;0.60;;
35632;SDS011;21754;48.216;-1.628;2024-02-26T10:04:39;9.70;;;1.08;;
35632;SDS011;21754;48.216;-1.628;2024-02-26T10:07:07;0.90;;;0.60;;
35632;SDS011;21754;48.216;-1.628;2024-02-26T10:09:35;1.85;;;0.77;;
35632;SDS011;21754;48.216;-1.628;2024-02-26T10:12:01;2.42;;;0.82;;
35632;SDS011;21754;48.216;-1.628;2024-02-26T10:14:27;1.23;;;1.13;;
35632;SDS011;21754;48.216;-1.628;2024-02-26T10:16:53;3.30;;;1.33;;
35632;SDS011;21754;48.216;-1.628;2024-02-26T10:19:27;1.60;;;1.15;;
35632;SDS011;21754;48.216;-1.628;2024-02-26T10:22:00;3.20;;;1.48;;
35632;SDS011;21754;48.216;-1.628;2024-02-26T10:24:28;2.95;;;1.20;;
35632;SDS011;21754;48.216;-1.628;2024-02-26T10:26:55;3.30;;;0.73;;
35632;SDS011;21754;48.216;-1.628;2024-02-26T10:29:24;4.20;;;1.17;;
35632;SDS011;21754;48.216;-1.628;2024-02-26T10:31:51;2.10;;;0.90;;
35632;SDS011;21754;48.216;-1.628;2024-02-26T10:34:17;1.80;;;1.05;;
35632;SDS011;21754;48.216;-1.628;2024-02-26T10:36:44;3.28;;;0.70;;
35632;SDS011;21754;48.216;-1.628;2024-02-26T10:39:13;1.08;;;0.93;;
35632;SDS011;21754;48.216;-1.628;2024-02-26T10:41:43;2.50;;;0.70;;
35632;SDS011;21754;48.216;-1.628;2024-02-26T10:44:09;3.10;;;0.70;;
35632;SDS011;21754;48.216;-1.628;2024-02-26T10:46:40;8.40;;;1.13;;
35632;SDS011;21754;48.216;-1.628;2024-02-26T10:49:08;3.08;;;2.25;;
35632;SDS011;21754;48.216;-1.628;2024-02-26T10:51:38;8.75;;;0.90;;
35632;SDS011;21754;48.216;-1.628;2024-02-26T10:54:04;5.15;;;1.15;;
35632;SDS011;21754;48.216;-1.628;2024-02-26T10:56:33;3.40;;;1.23;;
35632;SDS011;21754;48.216;-1.628;2024-02-26T10:59:00;3.67;;;2.05;;
35632;SDS011;21754;48.216;-1.628;2024-02-26T11:01:26;0.85;;;0.82;;
35632;SDS011;21754;48.216;-1.628;2024-02-26T11:03:54;0.77;;;0.77;;
35632;SDS011;21754;48.216;-1.628;2024-02-26T11:06:21;3.22;;;1.25;;
35632;SDS011;21754;48.216;-1.628;2024-02-26T11:08:48;4.65;;;1.27;;
35632;SDS011;21754;48.216;-1.628;2024-02-26T11:11:14;3.33;;;1.20;;
35632;SDS011;21754;48.216;-1.628;2024-02-26T11:13:40;3.03;;;1.05;;
35632;SDS011;21754;48.216;-1.628;2024-02-26T11:16:09;1.30;;;0.80;;
35632;SDS011;21754;48.216;-1.628;2024-02-26T11:18:36;2.25;;;0.63;;
35632;SDS011;21754;48.216;-1.628;2024-02-26T11:21:02;4.45;;;0.80;;
35632;SDS011;21754;48.216;-1.628;2024-02-26T11:23:29;1.85;;;1.25;;
35632;SDS011;21754;48.216;-1.628;2024-02-26T11:25:57;4.53;;;1.23;;
35632;SDS011;21754;48.216;-1.628;2024-02-26T11:28:24;3.00;;;1.00;;
35632;SDS011;21754;48.216;-1.628;2024-02-26T11:30:53;2.63;;;0.65;;
35632;SDS011;21754;48.216;-1.628;2024-02-26T11:33:19;4.45;;;1.20;;
35632;SDS011;21754;48.216;-1.628;2024-02-26T11:35:45;2.90;;;1.08;;
35632;SDS011;21754;48.216;-1.628;2024-02-26T11:38:21;2.05;;;1.13;;
35632;SDS011;21754;48.216;-1.628;2024-02-26T11:40:47;12.50;;;1.80;;
35632;SDS011;21754;48.216;-1.628;2024-02-26T11:43:13;1.55;;;1.00;;
35632;SDS011;21754;48.216;-1.628;2024-02-26T11:48:24;4.90;;;1.33;;
35632;SDS011;21754;48.216;-1.628;2024-02-26T11:53:20;6.82;;;0.95;;
35632;SDS011;21754;48.216;-1.628;2024-02-26T11:55:46;4.05;;;0.98;;
35632;SDS011;21754;48.216;-1.628;2024-02-26T11:58:12;4.20;;;1.42;;
35632;SDS011;21754;48.216;-1.628;2024-02-26T12:00:42;5.50;;;1.13;;
35632;SDS011;21754;48.216;-1.628;2024-02-26T12:03:08;2.33;;;1.00;;
35632;SDS011;21754;48.216;-1.628;2024-02-26T12:05:36;2.88;;;1.52;;
35632;SDS011;21754;48.216;-1.628;2024-02-26T12:08:04;7.72;;;1.38;;
35632;SDS011;21754;48.216;-1.628;2024-02-26T12:10:34;12.13;;;1.73;;
35632;SDS011;21754;48.216;-1.628;2024-02-26T12:13:13;5.88;;;1.88;;
35632;SDS011;21754;48.216;-1.628;2024-02-26T12:15:40;5.25;;;1.38;;
35632;SDS011;21754;48.216;-1.628;2024-02-26T12:18:07;8.50;;;1.83;;
35632;SDS011;21754;48.216;-1.628;2024-02-26T12:20:35;5.68;;;1.27;;
35632;SDS011;21754;48.216;-1.628;2024-02-26T12:23:04;4.95;;;1.00;;
35632;SDS011;21754;48.216;-1.628;2024-02-26T12:25:31;1.65;;;1.35;;
35632;SDS011;21754;48.216;-1.628;2024-02-26T12:27:58;2.63;;;0.70;;
35632;SDS011;21754;48.216;-1.628;2024-02-26T12:30:24;5.38;;;1.45;;
35632;SDS011;21754;48.216;-1.628;2024-02-26T12:32:52;2.40;;;2.17;;
35632;SDS011;21754;48.216;-1.628;2024-02-26T12:35:22;8.43;;;1.73;;
35632;SDS011;21754;48.216;-1.628;2024-02-26T12:37:48;7.82;;;2.55;;
35632;SDS011;21754;48.216;-1.628;2024-02-26T12:40:16;9.48;;;1.85;;
35632;SDS011;21754;48.216;-1.628;2024-02-26T12:42:43;3.15;;;1.52;;
35632;SDS011;21754;48.216;-1.628;2024-02-26T12:45:10;8.57;;;1.50;;
35632;SDS011;21754;48.216;-1.628;2024-02-26T12:47:40;3.33;;;1.63;;
35632;SDS011;21754;48.216;-1.628;2024-02-26T12:50:06;5.68;;;1.98;;
35632;SDS011;21754;48.216;-1.628;2024-02-26T12:52:33;4.82;;;1.20;;
35632;SDS011;21754;48.216;-1.628;2024-02-26T12:55:00;8.07;;;1.52;;
35632;SDS011;21754;48.216;-1.628;2024-02-26T12:57:27;4.47;;;1.48;;
35632;SDS011;21754;48.216;-1.628;2024-02-26T12:59:55;7.80;;;2.67;;
35632;SDS011;21754;48.216;-1.628;2024-02-26T13:02:21;7.15;;;2.50;;
35632;SDS011;21754;48.216;-1.628;2024-02-26T13:04:47;8.43;;;1.85;;
35632;SDS011;21754;48.216;-1.628;2024-02-26T13:07:13;7.57;;;1.85;;
35632;SDS011;21754;48.216;-1.628;2024-02-26T13:09:39;7.13;;;2.25;;
35632;SDS011;21754;48.216;-1.628;2024-02-26T13:12:05;12.60;;;2.42;;
35632;SDS011;21754;48.216;-1.628;2024-02-26T13:14:32;3.45;;;1.65;;
35632;SDS011;21754;48.216;-1.628;2024-02-26T13:16:59;7.32;;;2.33;;
35632;SDS011;21754;48.216;-1.628;2024-02-26T13:19:25;3.60;;;1.83;;
35632;SDS011;21754;48.216;-1.628;2024-02-26T13:21:52;3.63;;;1.50;;
35632;SDS011;21754;48.216;-1.628;2024-02-26T13:24:21;1.63;;;1.17;;
35632;SDS011;21754;48.216;-1.628;2024-02-26T13:26:53;8.88;;;1.30;;
35632;SDS011;21754;48.216;-1.628;2024-02-26T13:29:20;3.83;;;1.33;;
35632;SDS011;21754;48.216;-1.628;2024-02-26T13:31:46;10.40;;;2.30;;
35632;SDS011;21754;48.216;-1.628;2024-02-26T13:34:25;9.05;;;1.38;;
35632;SDS011;21754;48.216;-1.628;2024-02-26T13:36:52;8.00;;;1.63;;
35632;SDS011;21754;48.216;-1.628;2024-02-26T13:39:25;3.35;;;1.25;;
35632;SDS011;21754;48.216;-1.628;2024-02-26T13:41:51;11.10;;;2.10;;
35632;SDS011;21754;48.216;-1.628;2024-02-26T13:44:19;4.82;;;1.35;;
35632;SDS011;21754;48.216;-1.628;2024-02-26T13:46:45;7.67;;;2.53;;
35632;SDS011;21754;48.216;-1.628;2024-02-26T13:49:11;13.80;;;2.08;;
35632;SDS011;21754;48.216;-1.628;2024-02-26T13:51:38;12.68;;;2.45;;
35632;SDS011;21754;48.216;-1.628;2024-02-26T13:54:04;19.92;;;2.97;;
35632;SDS011;21754;48.216;-1.628;2024-02-26T13:56:30;7.88;;;1.88;;
35632;SDS011;21754;48.216;-1.628;2024-02-26T13:58:56;15.95;;;1.75;;
35632;SDS011;21754;48.216;-1.628;2024-02-26T14:01:23;8.05;;;2.72;;
35632;SDS011;21754;48.216;-1.628;2024-02-26T14:03:49;5.53;;;2.15;;
35632;SDS011;21754;48.216;-1.628;2024-02-26T14:06:15;3.75;;;2.22;;
35632;SDS011;21754;48.216;-1.628;2024-02-26T14:08:42;3.47;;;2.05;;
35632;SDS011;21754;48.216;-1.628;2024-02-26T14:11:08;4.88;;;1.50;;
35632;SDS011;21754;48.216;-1.628;2024-02-26T14:13:34;3.67;;;2.47;;
35632;SDS011;21754;48.216;-1.628;2024-02-26T14:16:00;9.07;;;1.42;;
35632;SDS011;21754;48.216;-1.628;2024-02-26T14:18:26;10.70;;;1.90;;
35632;SDS011;21754;48.216;-1.628;2024-02-26T14:20:52;12.40;;;2.00;;
35632;SDS011;21754;48.216;-1.628;2024-02-26T14:23:18;9.38;;;3.05;;
35632;SDS011;21754;48.216;-1.628;2024-02-26T14:25:44;3.83;;;2.22;;
35632;SDS011;21754;48.216;-1.628;2024-02-26T14:28:10;7.78;;;2.45;;
35632;SDS011;21754;48.216;-1.628;2024-02-26T14:30:36;8.10;;;1.90;;
35632;SDS011;21754;48.216;-1.628;2024-02-26T14:33:02;4.88;;;1.30;;
35632;SDS011;21754;48.216;-1.628;2024-02-26T14:35:28;14.98;;;1.70;;